sensor_id;sensor_type;location;lat;lon;timestamp;P1;durP1;ratioP1;P2;durP2;ratioP2
74269;SDS011;62754;48.252;11.654;2023-11-19T00:00:35;1.33;;;0.50;;
74269;SDS011;62754;48.252;11.654;2023-11-19T00:03:01;2.53;;;1.10;;
74269;SDS011;62754;48.252;11.654;2023-11-19T00:05:27;2.10;;;0.75;;
74269;SDS011;62754;48.252;11.654;2023-11-19T00:07:54;1.90;;;0.80;;
74269;SDS011;62754;48.252;11.654;2023-11-19T00:10:20;1.73;;;0.75;;
74269;SDS011;62754;48.252;11.654;2023-11-19T00:12:49;1.95;;;0.82;;
74269;SDS011;62754;48.252;11.654;2023-11-19T00:15:15;1.67;;;0.65;;
74269;SDS011;62754;48.252;11.654;2023-11-19T00:17:44;1.67;;;0.70;;
74269;SDS011;62754;48.252;11.654;2023-11-19T00:20:15;1.23;;;0.50;;
74269;SDS011;62754;48.252;11.654;2023-11-19T00:22:44;2.03;;;0.85;;
74269;SDS011;62754;48.252;11.654;2023-11-19T00:25:19;1.63;;;0.73;;
74269;SDS011;62754;48.252;11.654;2023-11-19T00:27:50;1.98;;;0.80;;
74269;SDS011;62754;48.252;11.654;2023-11-19T00:30:18;2.08;;;0.70;;
74269;SDS011;62754;48.252;11.654;2023-11-19T00:32:44;1.52;;;0.70;;
74269;SDS011;62754;48.252;11.654;2023-11-19T00:35:10;2.08;;;0.90;;
74269;SDS011;62754;48.252;11.654;2023-11-19T00:37:38;2.05;;;0.90;;
74269;SDS011;62754;48.252;11.654;2023-11-19T00:40:05;2.17;;;0.98;;
74269;SDS011;62754;48.252;11.654;2023-11-19T00:42:31;2.05;;;0.85;;
74269;SDS011;62754;48.252;11.654;2023-11-19T00:44:57;3.47;;;1.55;;
74269;SDS011;62754;48.252;11.654;2023-11-19T00:47:23;1.95;;;0.90;;
74269;SDS011;62754;48.252;11.654;2023-11-19T00:49:49;3.13;;;1.08;;
74269;SDS011;62754;48.252;11.654;2023-11-19T00:52:15;3.03;;;1.08;;
74269;SDS011;62754;48.252;11.654;2023-11-19T00:54:42;3.38;;;1.13;;
74269;SDS011;62754;48.252;11.654;2023-11-19T00:57:08;2.40;;;1.38;;
74269;SDS011;62754;48.252;11.654;2023-11-19T00:59:34;7.70;;;3.50;;
74269;SDS011;62754;48.252;11.654;2023-11-19T01:02:00;2.75;;;1.20;;
74269;SDS011;62754;48.252;11.654;2023-11-19T01:04:28;2.20;;;1.05;;
74269;SDS011;62754;48.252;11.654;2023-11-19T01:06:55;2.85;;;1.30;;
74269;SDS011;62754;48.252;11.654;2023-11-19T01:09:21;3.08;;;1.33;;
74269;SDS011;62754;48.252;11.654;2023-11-19T01:11:46;3.08;;;1.50;;
74269;SDS011;62754;48.252;11.654;2023-11-19T01:14:12;2.55;;;1.25;;
74269;SDS011;62754;48.252;11.654;2023-11-19T01:16:38;3.15;;;1.45;;
74269;SDS011;62754;48.252;11.654;2023-11-19T01:19:04;2.53;;;1.25;;
74269;SDS011;62754;48.252;11.654;2023-11-19T01:21:30;2.53;;;1.40;;
74269;SDS011;62754;48.252;11.654;2023-11-19T01:23:59;2.17;;;0.98;;
74269;SDS011;62754;48.252;11.654;2023-11-19T01:26:25;3.55;;;1.40;;
74269;SDS011;62754;48.252;11.654;2023-11-19T01:28:51;2.70;;;1.27;;
74269;SDS011;62754;48.252;11.654;2023-11-19T01:31:18;2.92;;;1.25;;
74269;SDS011;62754;48.252;11.654;2023-11-19T01:33:44;3.28;;;1.33;;
74269;SDS011;62754;48.252;11.654;2023-11-19T01:36:14;3.38;;;1.20;;
74269;SDS011;62754;48.252;11.654;2023-11-19T01:38:40;3.90;;;1.50;;
74269;SDS011;62754;48.252;11.654;2023-11-19T01:41:06;3.15;;;1.45;;
74269;SDS011;62754;48.252;11.654;2023-11-19T01:46:04;3.50;;;1.33;;
74269;SDS011;62754;48.252;11.654;2023-11-19T01:48:35;2.55;;;1.58;;
74269;SDS011;62754;48.252;11.654;2023-11-19T01:51:05;2.78;;;1.60;;
74269;SDS011;62754;48.252;11.654;2023-11-19T01:53:32;3.42;;;1.55;;
74269;SDS011;62754;48.252;11.654;2023-11-19T01:56:00;2.90;;;1.40;;
74269;SDS011;62754;48.252;11.654;2023-11-19T01:58:26;3.42;;;1.70;;
74269;SDS011;62754;48.252;11.654;2023-11-19T02:00:55;5.20;;;2.03;;
74269;SDS011;62754;48.252;11.654;2023-11-19T02:03:21;3.58;;;1.90;;
74269;SDS011;62754;48.252;11.654;2023-11-19T02:05:51;3.67;;;1.88;;
74269;SDS011;62754;48.252;11.654;2023-11-19T02:08:18;4.75;;;1.98;;
74269;SDS011;62754;48.252;11.654;2023-11-19T02:10:45;3.45;;;1.73;;
74269;SDS011;62754;48.252;11.654;2023-11-19T02:13:11;3.63;;;1.83;;
74269;SDS011;62754;48.252;11.654;2023-11-19T02:15:38;3.63;;;2.00;;
74269;SDS011;62754;48.252;11.654;2023-11-19T02:20:50;3.38;;;1.85;;
74269;SDS011;62754;48.252;11.654;2023-11-19T02:23:17;3.53;;;1.83;;
74269;SDS011;62754;48.252;11.654;2023-11-19T02:25:45;3.83;;;1.70;;
74269;SDS011;62754;48.252;11.654;2023-11-19T02:28:17;2.78;;;1.63;;
74269;SDS011;62754;48.252;11.654;2023-11-19T02:30:43;4.15;;;1.92;;
74269;SDS011;62754;48.252;11.654;2023-11-19T02:33:09;4.55;;;2.15;;
74269;SDS011;62754;48.252;11.654;2023-11-19T02:35:35;3.35;;;1.77;;
74269;SDS011;62754;48.252;11.654;2023-11-19T02:38:01;3.65;;;2.15;;
74269;SDS011;62754;48.252;11.654;2023-11-19T02:40:28;2.65;;;1.40;;
74269;SDS011;62754;48.252;11.654;2023-11-19T02:42:55;2.97;;;1.30;;
74269;SDS011;62754;48.252;11.654;2023-11-19T02:45:24;2.83;;;1.30;;
74269;SDS011;62754;48.252;11.654;2023-11-19T02:47:51;2.10;;;0.82;;
74269;SDS011;62754;48.252;11.654;2023-11-19T02:50:18;1.95;;;0.75;;
74269;SDS011;62754;48.252;11.654;2023-11-19T02:52:50;2.83;;;0.95;;
74269;SDS011;62754;48.252;11.654;2023-11-19T02:55:18;2.08;;;0.90;;
74269;SDS011;62754;48.252;11.654;2023-11-19T02:57:44;2.15;;;0.98;;
74269;SDS011;62754;48.252;11.654;2023-11-19T03:00:17;2.15;;;0.90;;
74269;SDS011;62754;48.252;11.654;2023-11-19T03:02:48;2.47;;;0.70;;
74269;SDS011;62754;48.252;11.654;2023-11-19T03:05:23;1.85;;;0.80;;
74269;SDS011;62754;48.252;11.654;2023-11-19T03:07:50;2.00;;;0.70;;
74269;SDS011;62754;48.252;11.654;2023-11-19T03:10:16;4.15;;;1.00;;
74269;SDS011;62754;48.252;11.654;2023-11-19T03:12:43;1.65;;;0.80;;
74269;SDS011;62754;48.252;11.654;2023-11-19T03:15:10;1.90;;;0.73;;
74269;SDS011;62754;48.252;11.654;2023-11-19T03:17:40;2.33;;;0.88;;
74269;SDS011;62754;48.252;11.654;2023-11-19T03:20:07;2.45;;;0.98;;
74269;SDS011;62754;48.252;11.654;2023-11-19T03:22:41;1.70;;;0.80;;
74269;SDS011;62754;48.252;11.654;2023-11-19T03:25:08;1.52;;;0.70;;
74269;SDS011;62754;48.252;11.654;2023-11-19T03:27:37;2.45;;;0.93;;
74269;SDS011;62754;48.252;11.654;2023-11-19T03:30:09;3.13;;;0.98;;
74269;SDS011;62754;48.252;11.654;2023-11-19T03:32:35;2.55;;;0.88;;
74269;SDS011;62754;48.252;11.654;2023-11-19T03:35:02;1.70;;;0.60;;
74269;SDS011;62754;48.252;11.654;2023-11-19T03:37:36;2.60;;;0.60;;
74269;SDS011;62754;48.252;11.654;2023-11-19T03:40:02;2.47;;;0.55;;
74269;SDS011;62754;48.252;11.654;2023-11-19T03:42:29;1.30;;;0.60;;
74269;SDS011;62754;48.252;11.654;2023-11-19T03:44:58;2.08;;;0.63;;
74269;SDS011;62754;48.252;11.654;2023-11-19T03:47:24;1.83;;;0.63;;
74269;SDS011;62754;48.252;11.654;2023-11-19T03:49:50;1.60;;;0.50;;
74269;SDS011;62754;48.252;11.654;2023-11-19T03:52:17;3.50;;;0.70;;
74269;SDS011;62754;48.252;11.654;2023-11-19T03:54:43;1.13;;;0.40;;
74269;SDS011;62754;48.252;11.654;2023-11-19T03:57:13;1.13;;;0.32;;
74269;SDS011;62754;48.252;11.654;2023-11-19T03:59:40;2.60;;;0.47;;
74269;SDS011;62754;48.252;11.654;2023-11-19T04:02:06;0.75;;;0.28;;
74269;SDS011;62754;48.252;11.654;2023-11-19T04:04:32;1.63;;;0.35;;
74269;SDS011;62754;48.252;11.654;2023-11-19T04:06:59;1.00;;;0.30;;
74269;SDS011;62754;48.252;11.654;2023-11-19T04:11:51;0.77;;;0.30;;
74269;SDS011;62754;48.252;11.654;2023-11-19T04:14:17;1.98;;;0.30;;
74269;SDS011;62754;48.252;11.654;2023-11-19T04:16:46;1.50;;;0.30;;
74269;SDS011;62754;48.252;11.654;2023-11-19T04:19:12;0.63;;;0.35;;
74269;SDS011;62754;48.252;11.654;2023-11-19T04:21:41;0.60;;;0.20;;
74269;SDS011;62754;48.252;11.654;2023-11-19T04:24:07;1.15;;;0.35;;
74269;SDS011;62754;48.252;11.654;2023-11-19T04:26:39;0.88;;;0.25;;
74269;SDS011;62754;48.252;11.654;2023-11-19T04:29:08;0.68;;;0.25;;
74269;SDS011;62754;48.252;11.654;2023-11-19T04:31:37;0.47;;;0.22;;
74269;SDS011;62754;48.252;11.654;2023-11-19T04:34:03;0.80;;;0.30;;
74269;SDS011;62754;48.252;11.654;2023-11-19T04:36:29;0.70;;;0.30;;
74269;SDS011;62754;48.252;11.654;2023-11-19T04:38:55;0.50;;;0.30;;
74269;SDS011;62754;48.252;11.654;2023-11-19T04:41:21;0.75;;;0.30;;
74269;SDS011;62754;48.252;11.654;2023-11-19T04:43:47;0.90;;;0.30;;
74269;SDS011;62754;48.252;11.654;2023-11-19T04:46:12;0.50;;;0.20;;
74269;SDS011;62754;48.252;11.654;2023-11-19T04:48:38;0.35;;;0.20;;
74269;SDS011;62754;48.252;11.654;2023-11-19T04:51:04;1.05;;;0.40;;
74269;SDS011;62754;48.252;11.654;2023-11-19T04:53:30;0.68;;;0.30;;
74269;SDS011;62754;48.252;11.654;2023-11-19T04:55:56;1.55;;;0.38;;
74269;SDS011;62754;48.252;11.654;2023-11-19T04:58:22;0.52;;;0.30;;
74269;SDS011;62754;48.252;11.654;2023-11-19T05:00:48;0.80;;;0.30;;
74269;SDS011;62754;48.252;11.654;2023-11-19T05:03:14;1.27;;;0.57;;
74269;SDS011;62754;48.252;11.654;2023-11-19T05:05:40;0.68;;;0.35;;
74269;SDS011;62754;48.252;11.654;2023-11-19T05:08:05;1.40;;;0.40;;
74269;SDS011;62754;48.252;11.654;2023-11-19T05:10:31;0.70;;;0.25;;
74269;SDS011;62754;48.252;11.654;2023-11-19T05:12:57;1.15;;;0.30;;
74269;SDS011;62754;48.252;11.654;2023-11-19T05:15:23;1.42;;;0.50;;
74269;SDS011;62754;48.252;11.654;2023-11-19T05:17:49;2.17;;;0.47;;
74269;SDS011;62754;48.252;11.654;2023-11-19T05:20:15;0.45;;;0.30;;
74269;SDS011;62754;48.252;11.654;2023-11-19T05:22:41;0.45;;;0.30;;
74269;SDS011;62754;48.252;11.654;2023-11-19T05:25:08;1.27;;;0.28;;
74269;SDS011;62754;48.252;11.654;2023-11-19T05:27:35;1.17;;;0.40;;
74269;SDS011;62754;48.252;11.654;2023-11-19T05:30:02;0.60;;;0.25;;
74269;SDS011;62754;48.252;11.654;2023-11-19T05:32:35;1.08;;;0.35;;
74269;SDS011;62754;48.252;11.654;2023-11-19T05:35:01;1.52;;;0.43;;
74269;SDS011;62754;48.252;11.654;2023-11-19T05:37:27;1.95;;;0.40;;
74269;SDS011;62754;48.252;11.654;2023-11-19T05:39:53;1.00;;;0.40;;
74269;SDS011;62754;48.252;11.654;2023-11-19T05:42:19;1.02;;;0.32;;
74269;SDS011;62754;48.252;11.654;2023-11-19T05:44:45;1.35;;;0.30;;
74269;SDS011;62754;48.252;11.654;2023-11-19T05:47:11;1.02;;;0.30;;
74269;SDS011;62754;48.252;11.654;2023-11-19T05:49:37;1.02;;;0.40;;
74269;SDS011;62754;48.252;11.654;2023-11-19T05:52:03;0.73;;;0.30;;
74269;SDS011;62754;48.252;11.654;2023-11-19T05:54:32;2.30;;;0.50;;
74269;SDS011;62754;48.252;11.654;2023-11-19T05:57:03;1.25;;;0.40;;
74269;SDS011;62754;48.252;11.654;2023-11-19T05:59:35;0.70;;;0.40;;
74269;SDS011;62754;48.252;11.654;2023-11-19T06:02:02;1.10;;;0.40;;
74269;SDS011;62754;48.252;11.654;2023-11-19T06:04:28;0.93;;;0.30;;
74269;SDS011;62754;48.252;11.654;2023-11-19T06:06:54;0.70;;;0.20;;
74269;SDS011;62754;48.252;11.654;2023-11-19T06:09:20;1.20;;;0.35;;
74269;SDS011;62754;48.252;11.654;2023-11-19T06:11:50;1.20;;;0.40;;
74269;SDS011;62754;48.252;11.654;2023-11-19T06:14:17;1.88;;;0.50;;
74269;SDS011;62754;48.252;11.654;2023-11-19T06:16:44;1.00;;;0.40;;
74269;SDS011;62754;48.252;11.654;2023-11-19T06:19:10;2.40;;;0.55;;
74269;SDS011;62754;48.252;11.654;2023-11-19T06:21:36;0.80;;;0.40;;
74269;SDS011;62754;48.252;11.654;2023-11-19T06:24:02;1.25;;;0.60;;
74269;SDS011;62754;48.252;11.654;2023-11-19T06:26:28;1.38;;;0.47;;
74269;SDS011;62754;48.252;11.654;2023-11-19T06:28:54;0.75;;;0.40;;
74269;SDS011;62754;48.252;11.654;2023-11-19T06:31:20;0.47;;;0.20;;
74269;SDS011;62754;48.252;11.654;2023-11-19T06:33:46;0.82;;;0.30;;
74269;SDS011;62754;48.252;11.654;2023-11-19T06:36:15;0.73;;;0.30;;
74269;SDS011;62754;48.252;11.654;2023-11-19T06:38:41;1.20;;;0.40;;
74269;SDS011;62754;48.252;11.654;2023-11-19T06:41:08;0.63;;;0.30;;
74269;SDS011;62754;48.252;11.654;2023-11-19T06:43:34;1.80;;;0.43;;
74269;SDS011;62754;48.252;11.654;2023-11-19T06:46:01;0.65;;;0.30;;
74269;SDS011;62754;48.252;11.654;2023-11-19T06:48:30;0.57;;;0.30;;
74269;SDS011;62754;48.252;11.654;2023-11-19T06:50:57;2.72;;;0.47;;
74269;SDS011;62754;48.252;11.654;2023-11-19T06:53:23;0.77;;;0.30;;
74269;SDS011;62754;48.252;11.654;2023-11-19T06:55:49;0.82;;;0.32;;
74269;SDS011;62754;48.252;11.654;2023-11-19T06:58:15;0.82;;;0.20;;
74269;SDS011;62754;48.252;11.654;2023-11-19T07:00:43;0.60;;;0.30;;
74269;SDS011;62754;48.252;11.654;2023-11-19T07:03:09;0.63;;;0.30;;
74269;SDS011;62754;48.252;11.654;2023-11-19T07:05:38;0.30;;;0.20;;
74269;SDS011;62754;48.252;11.654;2023-11-19T07:08:05;0.85;;;0.28;;
74269;SDS011;62754;48.252;11.654;2023-11-19T07:10:35;0.63;;;0.30;;
74269;SDS011;62754;48.252;11.654;2023-11-19T07:13:00;1.05;;;0.30;;
74269;SDS011;62754;48.252;11.654;2023-11-19T07:15:27;1.10;;;0.40;;
74269;SDS011;62754;48.252;11.654;2023-11-19T07:17:53;1.27;;;0.47;;
74269;SDS011;62754;48.252;11.654;2023-11-19T07:20:19;1.05;;;0.30;;
74269;SDS011;62754;48.252;11.654;2023-11-19T07:22:45;0.60;;;0.25;;
74269;SDS011;62754;48.252;11.654;2023-11-19T07:25:14;0.30;;;0.20;;
74269;SDS011;62754;48.252;11.654;2023-11-19T07:27:40;1.40;;;0.47;;
74269;SDS011;62754;48.252;11.654;2023-11-19T07:30:06;0.68;;;0.28;;
74269;SDS011;62754;48.252;11.654;2023-11-19T07:32:32;0.57;;;0.20;;
74269;SDS011;62754;48.252;11.654;2023-11-19T07:34:58;0.43;;;0.20;;
74269;SDS011;62754;48.252;11.654;2023-11-19T07:37:24;0.98;;;0.15;;
74269;SDS011;62754;48.252;11.654;2023-11-19T07:39:50;0.55;;;0.20;;
74269;SDS011;62754;48.252;11.654;2023-11-19T07:42:16;0.50;;;0.20;;
74269;SDS011;62754;48.252;11.654;2023-11-19T07:44:45;0.60;;;0.15;;
74269;SDS011;62754;48.252;11.654;2023-11-19T07:47:11;0.80;;;0.30;;
74269;SDS011;62754;48.252;11.654;2023-11-19T07:49:37;1.33;;;0.25;;
74269;SDS011;62754;48.252;11.654;2023-11-19T07:52:04;0.50;;;0.20;;
74269;SDS011;62754;48.252;11.654;2023-11-19T07:54:30;0.45;;;0.13;;
74269;SDS011;62754;48.252;11.654;2023-11-19T07:56:56;0.75;;;0.20;;
74269;SDS011;62754;48.252;11.654;2023-11-19T07:59:21;1.13;;;0.30;;
74269;SDS011;62754;48.252;11.654;2023-11-19T08:01:47;1.10;;;0.20;;
74269;SDS011;62754;48.252;11.654;2023-11-19T08:04:13;0.90;;;0.30;;
74269;SDS011;62754;48.252;11.654;2023-11-19T08:06:39;0.68;;;0.20;;
74269;SDS011;62754;48.252;11.654;2023-11-19T08:09:05;0.65;;;0.30;;
74269;SDS011;62754;48.252;11.654;2023-11-19T08:11:31;0.57;;;0.22;;
74269;SDS011;62754;48.252;11.654;2023-11-19T08:18:50;0.77;;;0.10;;
74269;SDS011;62754;48.252;11.654;2023-11-19T08:21:15;0.52;;;0.20;;
74269;SDS011;62754;48.252;11.654;2023-11-19T08:23:41;0.70;;;0.30;;
74269;SDS011;62754;48.252;11.654;2023-11-19T08:26:07;0.47;;;0.10;;
74269;SDS011;62754;48.252;11.654;2023-11-19T08:28:33;0.63;;;0.10;;
74269;SDS011;62754;48.252;11.654;2023-11-19T08:31:00;0.63;;;0.13;;
74269;SDS011;62754;48.252;11.654;2023-11-19T08:33:26;0.73;;;0.20;;
74269;SDS011;62754;48.252;11.654;2023-11-19T08:35:52;0.57;;;0.30;;
74269;SDS011;62754;48.252;11.654;2023-11-19T08:38:18;0.43;;;0.20;;
74269;SDS011;62754;48.252;11.654;2023-11-19T08:40:44;0.57;;;0.20;;
74269;SDS011;62754;48.252;11.654;2023-11-19T08:43:09;0.57;;;0.20;;
74269;SDS011;62754;48.252;11.654;2023-11-19T08:45:35;1.20;;;0.30;;
74269;SDS011;62754;48.252;11.654;2023-11-19T08:48:01;0.50;;;0.20;;
74269;SDS011;62754;48.252;11.654;2023-11-19T08:50:27;0.95;;;0.20;;
74269;SDS011;62754;48.252;11.654;2023-11-19T08:52:53;0.30;;;0.20;;
74269;SDS011;62754;48.252;11.654;2023-11-19T08:55:19;0.52;;;0.20;;
74269;SDS011;62754;48.252;11.654;2023-11-19T08:57:45;0.30;;;0.10;;
74269;SDS011;62754;48.252;11.654;2023-11-19T09:00:11;0.73;;;0.30;;
74269;SDS011;62754;48.252;11.654;2023-11-19T09:02:39;0.50;;;0.20;;
74269;SDS011;62754;48.252;11.654;2023-11-19T09:05:05;0.90;;;0.30;;
74269;SDS011;62754;48.252;11.654;2023-11-19T09:07:34;0.50;;;0.20;;
74269;SDS011;62754;48.252;11.654;2023-11-19T09:10:00;0.63;;;0.20;;
74269;SDS011;62754;48.252;11.654;2023-11-19T09:12:26;0.47;;;0.20;;
74269;SDS011;62754;48.252;11.654;2023-11-19T09:14:52;0.88;;;0.30;;
74269;SDS011;62754;48.252;11.654;2023-11-19T09:17:18;0.73;;;0.20;;
74269;SDS011;62754;48.252;11.654;2023-11-19T09:19:44;0.50;;;0.20;;
74269;SDS011;62754;48.252;11.654;2023-11-19T09:22:10;0.70;;;0.30;;
74269;SDS011;62754;48.252;11.654;2023-11-19T09:24:36;0.45;;;0.22;;
74269;SDS011;62754;48.252;11.654;2023-11-19T09:27:02;0.73;;;0.20;;
74269;SDS011;62754;48.252;11.654;2023-11-19T09:29:30;1.02;;;0.40;;
74269;SDS011;62754;48.252;11.654;2023-11-19T09:31:57;1.13;;;0.20;;
74269;SDS011;62754;48.252;11.654;2023-11-19T09:34:23;0.30;;;0.20;;
74269;SDS011;62754;48.252;11.654;2023-11-19T09:36:49;0.40;;;0.20;;
74269;SDS011;62754;48.252;11.654;2023-11-19T09:39:15;0.40;;;0.30;;
74269;SDS011;62754;48.252;11.654;2023-11-19T09:41:43;0.20;;;0.10;;
74269;SDS011;62754;48.252;11.654;2023-11-19T09:44:10;0.85;;;0.20;;
74269;SDS011;62754;48.252;11.654;2023-11-19T09:46:37;0.60;;;0.17;;
74269;SDS011;62754;48.252;11.654;2023-11-19T09:49:07;0.75;;;0.20;;
74269;SDS011;62754;48.252;11.654;2023-11-19T09:51:35;1.20;;;0.20;;
74269;SDS011;62754;48.252;11.654;2023-11-19T09:56:27;0.57;;;0.20;;
74269;SDS011;62754;48.252;11.654;2023-11-19T09:58:55;0.70;;;0.20;;
74269;SDS011;62754;48.252;11.654;2023-11-19T10:01:21;0.73;;;0.25;;
74269;SDS011;62754;48.252;11.654;2023-11-19T10:03:47;1.70;;;0.30;;
74269;SDS011;62754;48.252;11.654;2023-11-19T10:06:15;1.13;;;0.38;;
74269;SDS011;62754;48.252;11.654;2023-11-19T10:08:41;0.65;;;0.22;;
74269;SDS011;62754;48.252;11.654;2023-11-19T10:11:08;1.48;;;0.22;;
74269;SDS011;62754;48.252;11.654;2023-11-19T10:13:37;0.77;;;0.30;;
74269;SDS011;62754;48.252;11.654;2023-11-19T10:16:09;1.55;;;0.20;;
74269;SDS011;62754;48.252;11.654;2023-11-19T10:18:37;1.10;;;0.30;;
74269;SDS011;62754;48.252;11.654;2023-11-19T10:21:08;0.98;;;0.40;;
74269;SDS011;62754;48.252;11.654;2023-11-19T10:23:51;0.68;;;0.30;;
74269;SDS011;62754;48.252;11.654;2023-11-19T10:26:19;1.00;;;0.35;;
74269;SDS011;62754;48.252;11.654;2023-11-19T10:28:46;0.73;;;0.20;;
74269;SDS011;62754;48.252;11.654;2023-11-19T10:33:39;0.63;;;0.25;;
74269;SDS011;62754;48.252;11.654;2023-11-19T10:36:05;0.80;;;0.30;;
74269;SDS011;62754;48.252;11.654;2023-11-19T10:38:31;0.60;;;0.20;;
74269;SDS011;62754;48.252;11.654;2023-11-19T10:40:57;1.00;;;0.40;;
74269;SDS011;62754;48.252;11.654;2023-11-19T10:43:24;0.70;;;0.30;;
74269;SDS011;62754;48.252;11.654;2023-11-19T10:45:50;1.88;;;0.35;;
74269;SDS011;62754;48.252;11.654;2023-11-19T10:48:17;0.50;;;0.28;;
74269;SDS011;62754;48.252;11.654;2023-11-19T10:50:44;1.00;;;0.28;;
74269;SDS011;62754;48.252;11.654;2023-11-19T10:53:12;1.50;;;0.40;;
74269;SDS011;62754;48.252;11.654;2023-11-19T10:55:39;0.98;;;0.30;;
74269;SDS011;62754;48.252;11.654;2023-11-19T10:58:05;1.63;;;0.40;;
74269;SDS011;62754;48.252;11.654;2023-11-19T11:00:48;0.57;;;0.22;;
74269;SDS011;62754;48.252;11.654;2023-11-19T11:03:19;1.80;;;0.38;;
74269;SDS011;62754;48.252;11.654;2023-11-19T11:05:50;0.77;;;0.20;;
74269;SDS011;62754;48.252;11.654;2023-11-19T11:08:17;1.83;;;0.22;;
74269;SDS011;62754;48.252;11.654;2023-11-19T11:10:54;1.08;;;0.40;;
74269;SDS011;62754;48.252;11.654;2023-11-19T11:13:22;1.00;;;0.35;;
74269;SDS011;62754;48.252;11.654;2023-11-19T11:15:49;1.05;;;0.30;;
74269;SDS011;62754;48.252;11.654;2023-11-19T11:18:16;0.82;;;0.30;;
74269;SDS011;62754;48.252;11.654;2023-11-19T11:20:46;1.38;;;0.30;;
74269;SDS011;62754;48.252;11.654;2023-11-19T11:23:25;0.40;;;0.20;;
74269;SDS011;62754;48.252;11.654;2023-11-19T11:26:19;0.73;;;0.30;;
74269;SDS011;62754;48.252;11.654;2023-11-19T11:37:53;0.57;;;0.30;;
74269;SDS011;62754;48.252;11.654;2023-11-19T11:40:32;1.33;;;0.25;;
74269;SDS011;62754;48.252;11.654;2023-11-19T11:42:58;2.08;;;0.40;;
74269;SDS011;62754;48.252;11.654;2023-11-19T11:45:37;0.80;;;0.30;;
74269;SDS011;62754;48.252;11.654;2023-11-19T11:48:10;0.50;;;0.20;;
74269;SDS011;62754;48.252;11.654;2023-11-19T11:50:47;0.28;;;0.10;;
74269;SDS011;62754;48.252;11.654;2023-11-19T11:53:21;0.77;;;0.25;;
74269;SDS011;62754;48.252;11.654;2023-11-19T11:58:21;0.82;;;0.30;;
74269;SDS011;62754;48.252;11.654;2023-11-19T12:00:51;0.68;;;0.22;;
74269;SDS011;62754;48.252;11.654;2023-11-19T12:03:19;0.20;;;0.10;;
74269;SDS011;62754;48.252;11.654;2023-11-19T12:05:49;0.45;;;0.20;;
74269;SDS011;62754;48.252;11.654;2023-11-19T12:08:18;0.77;;;0.22;;
74269;SDS011;62754;48.252;11.654;2023-11-19T12:10:49;1.02;;;0.20;;
74269;SDS011;62754;48.252;11.654;2023-11-19T12:13:19;0.38;;;0.10;;
74269;SDS011;62754;48.252;11.654;2023-11-19T12:18:24;0.32;;;0.10;;
74269;SDS011;62754;48.252;11.654;2023-11-19T12:20:53;0.55;;;0.20;;
74269;SDS011;62754;48.252;11.654;2023-11-19T12:23:19;0.55;;;0.20;;
74269;SDS011;62754;48.252;11.654;2023-11-19T12:25:45;0.50;;;0.13;;
74269;SDS011;62754;48.252;11.654;2023-11-19T12:28:12;0.75;;;0.20;;
74269;SDS011;62754;48.252;11.654;2023-11-19T12:30:39;0.40;;;0.20;;
74269;SDS011;62754;48.252;11.654;2023-11-19T12:33:08;0.57;;;0.22;;
74269;SDS011;62754;48.252;11.654;2023-11-19T12:35:44;0.20;;;0.10;;
74269;SDS011;62754;48.252;11.654;2023-11-19T12:38:18;1.58;;;0.60;;
74269;SDS011;62754;48.252;11.654;2023-11-19T12:41:07;0.55;;;0.13;;
74269;SDS011;62754;48.252;11.654;2023-11-19T12:43:38;2.10;;;0.30;;
74269;SDS011;62754;48.252;11.654;2023-11-19T12:48:47;0.63;;;0.20;;
74269;SDS011;62754;48.252;11.654;2023-11-19T12:51:13;0.63;;;0.20;;
74269;SDS011;62754;48.252;11.654;2023-11-19T12:56:15;0.50;;;0.20;;
74269;SDS011;62754;48.252;11.654;2023-11-19T12:58:41;1.20;;;0.30;;
74269;SDS011;62754;48.252;11.654;2023-11-19T13:01:08;0.25;;;0.10;;
74269;SDS011;62754;48.252;11.654;2023-11-19T13:03:38;0.35;;;0.20;;
74269;SDS011;62754;48.252;11.654;2023-11-19T13:06:07;1.02;;;0.20;;
74269;SDS011;62754;48.252;11.654;2023-11-19T13:08:45;0.70;;;0.10;;
74269;SDS011;62754;48.252;11.654;2023-11-19T13:11:14;0.65;;;0.30;;
74269;SDS011;62754;48.252;11.654;2023-11-19T13:13:57;1.83;;;0.30;;
74269;SDS011;62754;48.252;11.654;2023-11-19T13:16:24;0.47;;;0.20;;
74269;SDS011;62754;48.252;11.654;2023-11-19T13:18:51;1.25;;;0.20;;
74269;SDS011;62754;48.252;11.654;2023-11-19T13:21:17;0.82;;;0.20;;
74269;SDS011;62754;48.252;11.654;2023-11-19T13:23:43;0.50;;;0.20;;
74269;SDS011;62754;48.252;11.654;2023-11-19T13:26:10;0.90;;;0.30;;
74269;SDS011;62754;48.252;11.654;2023-11-19T13:31:02;0.90;;;0.30;;
74269;SDS011;62754;48.252;11.654;2023-11-19T13:33:28;0.35;;;0.22;;
74269;SDS011;62754;48.252;11.654;2023-11-19T13:35:54;0.60;;;0.10;;
74269;SDS011;62754;48.252;11.654;2023-11-19T13:38:20;1.95;;;0.40;;
74269;SDS011;62754;48.252;11.654;2023-11-19T13:40:48;0.30;;;0.15;;
74269;SDS011;62754;48.252;11.654;2023-11-19T13:43:13;0.63;;;0.20;;
74269;SDS011;62754;48.252;11.654;2023-11-19T13:45:40;0.73;;;0.20;;
74269;SDS011;62754;48.252;11.654;2023-11-19T13:48:05;0.45;;;0.10;;
74269;SDS011;62754;48.252;11.654;2023-11-19T13:50:31;1.20;;;0.10;;
74269;SDS011;62754;48.252;11.654;2023-11-19T13:52:59;1.17;;;0.30;;
74269;SDS011;62754;48.252;11.654;2023-11-19T13:55:25;0.57;;;0.28;;
74269;SDS011;62754;48.252;11.654;2023-11-19T13:57:51;1.17;;;0.20;;
74269;SDS011;62754;48.252;11.654;2023-11-19T14:00:17;0.50;;;0.25;;
74269;SDS011;62754;48.252;11.654;2023-11-19T14:02:44;0.45;;;0.20;;
74269;SDS011;62754;48.252;11.654;2023-11-19T14:05:13;0.32;;;0.20;;
74269;SDS011;62754;48.252;11.654;2023-11-19T14:07:43;1.15;;;0.13;;
74269;SDS011;62754;48.252;11.654;2023-11-19T14:10:09;1.05;;;0.30;;
74269;SDS011;62754;48.252;11.654;2023-11-19T14:12:38;1.55;;;0.50;;
74269;SDS011;62754;48.252;11.654;2023-11-19T14:15:08;0.68;;;0.28;;
74269;SDS011;62754;48.252;11.654;2023-11-19T14:17:37;0.75;;;0.20;;
74269;SDS011;62754;48.252;11.654;2023-11-19T14:20:04;0.82;;;0.30;;
74269;SDS011;62754;48.252;11.654;2023-11-19T14:22:40;0.75;;;0.20;;
74269;SDS011;62754;48.252;11.654;2023-11-19T14:25:10;0.45;;;0.20;;
74269;SDS011;62754;48.252;11.654;2023-11-19T14:27:40;1.42;;;0.30;;
74269;SDS011;62754;48.252;11.654;2023-11-19T14:30:06;0.47;;;0.30;;
74269;SDS011;62754;48.252;11.654;2023-11-19T14:32:38;0.90;;;0.25;;
74269;SDS011;62754;48.252;11.654;2023-11-19T14:35:05;0.47;;;0.20;;
74269;SDS011;62754;48.252;11.654;2023-11-19T14:37:32;0.75;;;0.22;;
74269;SDS011;62754;48.252;11.654;2023-11-19T14:39:58;1.02;;;0.20;;
74269;SDS011;62754;48.252;11.654;2023-11-19T14:42:24;0.40;;;0.13;;
74269;SDS011;62754;48.252;11.654;2023-11-19T14:44:50;0.55;;;0.13;;
74269;SDS011;62754;48.252;11.654;2023-11-19T14:49:49;3.50;;;0.40;;
74269;SDS011;62754;48.252;11.654;2023-11-19T14:52:15;0.52;;;0.20;;
74269;SDS011;62754;48.252;11.654;2023-11-19T14:54:41;0.73;;;0.40;;
74269;SDS011;62754;48.252;11.654;2023-11-19T14:57:07;0.65;;;0.22;;
74269;SDS011;62754;48.252;11.654;2023-11-19T14:59:33;1.08;;;0.40;;
74269;SDS011;62754;48.252;11.654;2023-11-19T15:02:00;2.53;;;0.30;;
74269;SDS011;62754;48.252;11.654;2023-11-19T15:04:26;2.58;;;0.40;;
74269;SDS011;62754;48.252;11.654;2023-11-19T15:06:52;0.95;;;0.30;;
74269;SDS011;62754;48.252;11.654;2023-11-19T15:09:18;0.98;;;0.25;;
74269;SDS011;62754;48.252;11.654;2023-11-19T15:11:46;0.47;;;0.20;;
74269;SDS011;62754;48.252;11.654;2023-11-19T15:14:15;1.35;;;0.30;;
74269;SDS011;62754;48.252;11.654;2023-11-19T15:16:43;0.60;;;0.30;;